sensor_id;sensor_type;location;lat;lon;timestamp;temperature;humidity
11597;DHT22;5854;48.072;16.286;2023-08-06T05:43:11;16.80;73.60
11597;DHT22;5854;48.072;16.286;2023-08-06T05:45:45;16.80;73.30
11597;DHT22;5854;48.072;16.286;2023-08-06T05:50:44;16.90;73.70
11597;DHT22;5854;48.072;16.286;2023-08-06T06:39:33;17.00;73.50
11597;DHT22;5854;48.072;16.286;2023-08-06T06:55:09;17.10;71.70
11597;DHT22;5854;48.072;16.286;2023-08-06T06:57:36;17.10;71.40
11597;DHT22;5854;48.072;16.286;2023-08-06T07:00:07;17.20;73.50
11597;DHT22;5854;48.072;16.286;2023-08-06T07:17:55;17.20;73.40
11597;DHT22;5854;48.072;16.286;2023-08-06T08:25:05;17.80;68.60
11597;DHT22;5854;48.072;16.286;2023-08-06T08:27:37;17.80;68.20
11597;DHT22;5854;48.072;16.286;2023-08-06T08:30:05;17.80;67.90
11597;DHT22;5854;48.072;16.286;2023-08-06T08:32:33;17.60;67.90
11597;DHT22;5854;48.072;16.286;2023-08-06T08:35:01;17.70;69.30
11597;DHT22;5854;48.072;16.286;2023-08-06T08:37:28;17.80;68.60
11597;DHT22;5854;48.072;16.286;2023-08-06T08:39:57;17.90;68.10
11597;DHT22;5854;48.072;16.286;2023-08-06T08:44:59;17.90;68.80
11597;DHT22;5854;48.072;16.286;2023-08-06T08:50:09;17.90;67.70
11597;DHT22;5854;48.072;16.286;2023-08-06T08:55:08;17.80;68.30
11597;DHT22;5854;48.072;16.286;2023-08-06T08:57:35;17.70;67.80
11597;DHT22;5854;48.072;16.286;2023-08-06T09:00:03;17.70;69.00
11597;DHT22;5854;48.072;16.286;2023-08-06T09:02:32;17.60;69.10
11597;DHT22;5854;48.072;16.286;2023-08-06T09:05:02;17.60;68.80
11597;DHT22;5854;48.072;16.286;2023-08-06T09:07:32;17.70;69.40
11597;DHT22;5854;48.072;16.286;2023-08-06T09:32:53;17.60;68.90
11597;DHT22;5854;48.072;16.286;2023-08-06T09:35:22;17.50;69.40
11597;DHT22;5854;48.072;16.286;2023-08-06T09:37:51;17.50;70.10
11597;DHT22;5854;48.072;16.286;2023-08-06T09:40:24;17.60;69.50
11597;DHT22;5854;48.072;16.286;2023-08-06T09:42:53;17.60;69.20
11597;DHT22;5854;48.072;16.286;2023-08-06T09:45:20;17.60;69.30
11597;DHT22;5854;48.072;16.286;2023-08-06T09:47:48;17.60;69.20
11597;DHT22;5854;48.072;16.286;2023-08-06T09:50:18;17.50;69.00
11597;DHT22;5854;48.072;16.286;2023-08-06T09:52:45;17.60;69.20
11597;DHT22;5854;48.072;16.286;2023-08-06T09:55:13;17.60;69.40
11597;DHT22;5854;48.072;16.286;2023-08-06T09:57:42;17.50;69.60
11597;DHT22;5854;48.072;16.286;2023-08-06T10:00:09;17.50;69.90
11597;DHT22;5854;48.072;16.286;2023-08-06T10:02:38;17.50;69.70
11597;DHT22;5854;48.072;16.286;2023-08-06T10:05:06;17.40;71.10
11597;DHT22;5854;48.072;16.286;2023-08-06T10:07:35;17.40;70.30
11597;DHT22;5854;48.072;16.286;2023-08-06T10:10:04;17.30;71.50
11597;DHT22;5854;48.072;16.286;2023-08-06T10:12:32;17.30;72.20
11597;DHT22;5854;48.072;16.286;2023-08-06T10:15:02;17.30;72.00
11597;DHT22;5854;48.072;16.286;2023-08-06T10:17:32;17.30;71.40
11597;DHT22;5854;48.072;16.286;2023-08-06T10:20:00;17.30;73.00
11597;DHT22;5854;48.072;16.286;2023-08-06T10:25:01;17.20;71.60
11597;DHT22;5854;48.072;16.286;2023-08-06T10:27:33;17.20;72.90
11597;DHT22;5854;48.072;16.286;2023-08-06T10:33:01;17.20;72.50
11597;DHT22;5854;48.072;16.286;2023-08-06T10:35:30;17.10;74.60
11597;DHT22;5854;48.072;16.286;2023-08-06T10:38:19;17.10;73.60
11597;DHT22;5854;48.072;16.286;2023-08-06T10:48:55;17.50;70.60
11597;DHT22;5854;48.072;16.286;2023-08-06T10:51:22;17.50;71.40
11597;DHT22;5854;48.072;16.286;2023-08-06T10:53:49;17.60;70.30
11597;DHT22;5854;48.072;16.286;2023-08-06T10:56:17;17.70;71.10
11597;DHT22;5854;48.072;16.286;2023-08-06T10:58:45;17.70;69.50
11597;DHT22;5854;48.072;16.286;2023-08-06T11:01:16;17.80;69.30
11597;DHT22;5854;48.072;16.286;2023-08-06T11:03:46;17.80;69.20
11597;DHT22;5854;48.072;16.286;2023-08-06T11:06:18;17.80;68.50
11597;DHT22;5854;48.072;16.286;2023-08-06T11:08:47;17.80;68.70
11597;DHT22;5854;48.072;16.286;2023-08-06T11:11:14;17.80;68.20
11597;DHT22;5854;48.072;16.286;2023-08-06T11:13:42;17.90;68.70
11597;DHT22;5854;48.072;16.286;2023-08-06T11:21:13;17.80;68.00
11597;DHT22;5854;48.072;16.286;2023-08-06T11:23:41;17.80;68.10
11597;DHT22;5854;48.072;16.286;2023-08-06T11:26:08;17.80;68.10
11597;DHT22;5854;48.072;16.286;2023-08-06T11:28:35;17.70;67.80
11597;DHT22;5854;48.072;16.286;2023-08-06T11:31:02;17.70;68.10
11597;DHT22;5854;48.072;16.286;2023-08-06T11:38:35;17.80;68.00
11597;DHT22;5854;48.072;16.286;2023-08-06T11:41:03;17.80;68.10
11597;DHT22;5854;48.072;16.286;2023-08-06T11:43:31;17.80;68.10
11597;DHT22;5854;48.072;16.286;2023-08-06T11:45:59;17.80;67.90
11597;DHT22;5854;48.072;16.286;2023-08-06T11:48:26;17.70;66.90
11597;DHT22;5854;48.072;16.286;2023-08-06T11:50:53;17.70;67.80
11597;DHT22;5854;48.072;16.286;2023-08-06T11:53:21;17.80;68.10
11597;DHT22;5854;48.072;16.286;2023-08-06T11:55:48;17.80;67.10
11597;DHT22;5854;48.072;16.286;2023-08-06T11:58:18;17.80;67.40
11597;DHT22;5854;48.072;16.286;2023-08-06T12:00:45;17.70;67.70
11597;DHT22;5854;48.072;16.286;2023-08-06T12:03:11;17.80;68.00
11597;DHT22;5854;48.072;16.286;2023-08-06T12:05:38;17.70;68.00
11597;DHT22;5854;48.072;16.286;2023-08-06T12:08:06;17.70;68.20
11597;DHT22;5854;48.072;16.286;2023-08-06T12:13:14;17.70;68.00
11597;DHT22;5854;48.072;16.286;2023-08-06T12:15:42;17.70;66.70
11597;DHT22;5854;48.072;16.286;2023-08-06T12:18:09;17.70;67.60
11597;DHT22;5854;48.072;16.286;2023-08-06T12:20:36;17.70;66.10
11597;DHT22;5854;48.072;16.286;2023-08-06T12:23:04;17.90;66.20
11597;DHT22;5854;48.072;16.286;2023-08-06T12:25:33;18.10;65.60
11597;DHT22;5854;48.072;16.286;2023-08-06T12:28:07;18.10;65.30
11597;DHT22;5854;48.072;16.286;2023-08-06T12:30:47;18.20;64.50
11597;DHT22;5854;48.072;16.286;2023-08-06T12:33:15;18.20;65.20
11597;DHT22;5854;48.072;16.286;2023-08-06T12:35:42;18.30;64.90
11597;DHT22;5854;48.072;16.286;2023-08-06T12:38:11;18.40;64.70
11597;DHT22;5854;48.072;16.286;2023-08-06T12:40:38;18.50;64.00
11597;DHT22;5854;48.072;16.286;2023-08-06T12:43:06;18.50;64.00
11597;DHT22;5854;48.072;16.286;2023-08-06T12:45:35;18.50;64.40
11597;DHT22;5854;48.072;16.286;2023-08-06T12:48:21;18.50;63.90
11597;DHT22;5854;48.072;16.286;2023-08-06T12:55:56;18.60;63.80
11597;DHT22;5854;48.072;16.286;2023-08-06T12:58:23;18.70;63.90
11597;DHT22;5854;48.072;16.286;2023-08-06T13:00:54;18.60;63.60
11597;DHT22;5854;48.072;16.286;2023-08-06T13:03:23;18.70;62.20
11597;DHT22;5854;48.072;16.286;2023-08-06T13:05:50;18.70;63.70
11597;DHT22;5854;48.072;16.286;2023-08-06T13:08:20;18.70;63.20
11597;DHT22;5854;48.072;16.286;2023-08-06T13:10:56;18.80;62.70
11597;DHT22;5854;48.072;16.286;2023-08-06T13:13:26;18.90;62.90
11597;DHT22;5854;48.072;16.286;2023-08-06T13:15:53;19.00;62.40
11597;DHT22;5854;48.072;16.286;2023-08-06T13:18:20;18.90;63.10
11597;DHT22;5854;48.072;16.286;2023-08-06T13:20:49;19.00;62.10
11597;DHT22;5854;48.072;16.286;2023-08-06T13:23:17;18.90;62.00
11597;DHT22;5854;48.072;16.286;2023-08-06T13:25:47;19.00;62.10
11597;DHT22;5854;48.072;16.286;2023-08-06T13:28:14;19.00;61.90
11597;DHT22;5854;48.072;16.286;2023-08-06T13:30:43;18.90;61.80
11597;DHT22;5854;48.072;16.286;2023-08-06T13:33:10;18.90;62.00
11597;DHT22;5854;48.072;16.286;2023-08-06T13:35:38;18.90;61.20
11597;DHT22;5854;48.072;16.286;2023-08-06T13:38:06;19.00;61.60
11597;DHT22;5854;48.072;16.286;2023-08-06T13:40:33;19.10;61.20
11597;DHT22;5854;48.072;16.286;2023-08-06T13:43:00;19.00;60.70
11597;DHT22;5854;48.072;16.286;2023-08-06T13:45:27;19.10;61.30
11597;DHT22;5854;48.072;16.286;2023-08-06T13:47:56;19.10;61.20
11597;DHT22;5854;48.072;16.286;2023-08-06T13:50:23;19.10;60.70
11597;DHT22;5854;48.072;16.286;2023-08-06T13:52:51;19.20;60.50
11597;DHT22;5854;48.072;16.286;2023-08-06T13:55:22;19.10;60.00
11597;DHT22;5854;48.072;16.286;2023-08-06T13:57:49;19.10;58.60
11597;DHT22;5854;48.072;16.286;2023-08-06T14:00:16;19.20;59.80
11597;DHT22;5854;48.072;16.286;2023-08-06T14:02:43;19.20;58.70
11597;DHT22;5854;48.072;16.286;2023-08-06T14:05:10;19.20;60.00
11597;DHT22;5854;48.072;16.286;2023-08-06T14:07:37;19.20;59.60
11597;DHT22;5854;48.072;16.286;2023-08-06T14:10:05;19.20;58.60
11597;DHT22;5854;48.072;16.286;2023-08-06T14:12:36;19.20;59.10
11597;DHT22;5854;48.072;16.286;2023-08-06T14:15:03;19.20;60.10
11597;DHT22;5854;48.072;16.286;2023-08-06T14:17:30;19.30;60.10
11597;DHT22;5854;48.072;16.286;2023-08-06T14:19:57;19.20;58.80
11597;DHT22;5854;48.072;16.286;2023-08-06T14:22:24;19.20;60.10
11597;DHT22;5854;48.072;16.286;2023-08-06T14:24:51;19.20;60.00
11597;DHT22;5854;48.072;16.286;2023-08-06T14:27:18;19.20;59.20
11597;DHT22;5854;48.072;16.286;2023-08-06T14:29:47;19.00;60.00
11597;DHT22;5854;48.072;16.286;2023-08-06T14:32:14;19.00;59.80
11597;DHT22;5854;48.072;16.286;2023-08-06T14:34:43;19.00;59.20
11597;DHT22;5854;48.072;16.286;2023-08-06T14:37:10;18.90;59.10
11597;DHT22;5854;48.072;16.286;2023-08-06T14:39:37;18.90;60.40
11597;DHT22;5854;48.072;16.286;2023-08-06T14:42:04;18.90;60.20
11597;DHT22;5854;48.072;16.286;2023-08-06T14:44:31;19.00;60.70
11597;DHT22;5854;48.072;16.286;2023-08-06T14:46:59;18.90;58.90
11597;DHT22;5854;48.072;16.286;2023-08-06T14:49:26;18.90;60.40
11597;DHT22;5854;48.072;16.286;2023-08-06T14:51:53;19.00;59.00
11597;DHT22;5854;48.072;16.286;2023-08-06T14:54:24;19.00;60.00
11597;DHT22;5854;48.072;16.286;2023-08-06T14:56:52;19.10;60.10
11597;DHT22;5854;48.072;16.286;2023-08-06T14:59:19;19.10;59.10
11597;DHT22;5854;48.072;16.286;2023-08-06T15:01:46;19.10;59.60
11597;DHT22;5854;48.072;16.286;2023-08-06T15:04:14;19.00;59.60
11597;DHT22;5854;48.072;16.286;2023-08-06T15:06:41;19.10;58.60
11597;DHT22;5854;48.072;16.286;2023-08-06T15:09:08;18.90;60.40
11597;DHT22;5854;48.072;16.286;2023-08-06T15:11:35;19.00;59.30
11597;DHT22;5854;48.072;16.286;2023-08-06T15:14:02;19.00;59.80
11597;DHT22;5854;48.072;16.286;2023-08-06T15:16:32;19.10;59.10
11597;DHT22;5854;48.072;16.286;2023-08-06T15:18:59;19.00;59.70
11597;DHT22;5854;48.072;16.286;2023-08-06T15:21:28;19.10;58.60
11597;DHT22;5854;48.072;16.286;2023-08-06T15:23:55;19.10;58.70
11597;DHT22;5854;48.072;16.286;2023-08-06T15:26:21;19.20;57.90
11597;DHT22;5854;48.072;16.286;2023-08-06T15:28:48;19.10;58.20
11597;DHT22;5854;48.072;16.286;2023-08-06T15:31:17;19.10;58.30
11597;DHT22;5854;48.072;16.286;2023-08-06T15:33:46;19.20;59.70
11597;DHT22;5854;48.072;16.286;2023-08-06T15:36:13;19.10;58.60
11597;DHT22;5854;48.072;16.286;2023-08-06T15:38:41;19.20;58.90
11597;DHT22;5854;48.072;16.286;2023-08-06T15:41:08;19.20;59.00
11597;DHT22;5854;48.072;16.286;2023-08-06T15:43:35;19.20;57.80
11597;DHT22;5854;48.072;16.286;2023-08-06T15:46:02;19.30;59.10
11597;DHT22;5854;48.072;16.286;2023-08-06T15:48:29;19.30;58.30
11597;DHT22;5854;48.072;16.286;2023-08-06T15:50:56;19.40;58.90
11597;DHT22;5854;48.072;16.286;2023-08-06T15:53:24;19.30;59.40
11597;DHT22;5854;48.072;16.286;2023-08-06T15:55:52;19.20;58.40
11597;DHT22;5854;48.072;16.286;2023-08-06T15:58:19;19.20;59.30
11597;DHT22;5854;48.072;16.286;2023-08-06T16:00:46;19.10;59.10
11597;DHT22;5854;48.072;16.286;2023-08-06T16:03:14;19.00;59.10
11597;DHT22;5854;48.072;16.286;2023-08-06T16:05:42;19.00;58.70
11597;DHT22;5854;48.072;16.286;2023-08-06T16:08:12;18.90;59.20
11597;DHT22;5854;48.072;16.286;2023-08-06T16:10:39;18.90;60.60
11597;DHT22;5854;48.072;16.286;2023-08-06T16:13:10;18.80;59.20
11597;DHT22;5854;48.072;16.286;2023-08-06T16:15:37;18.90;59.50
11597;DHT22;5854;48.072;16.286;2023-08-06T16:18:05;18.80;60.00
11597;DHT22;5854;48.072;16.286;2023-08-06T16:20:32;18.90;60.10
11597;DHT22;5854;48.072;16.286;2023-08-06T16:23:13;18.80;59.70
11597;DHT22;5854;48.072;16.286;2023-08-06T16:25:40;18.80;61.10
11597;DHT22;5854;48.072;16.286;2023-08-06T16:28:12;18.80;58.60
11597;DHT22;5854;48.072;16.286;2023-08-06T16:33:23;18.80;60.30
11597;DHT22;5854;48.072;16.286;2023-08-06T16:35:51;18.80;60.90
11597;DHT22;5854;48.072;16.286;2023-08-06T16:40:57;18.80;60.50
11597;DHT22;5854;48.072;16.286;2023-08-06T16:43:30;18.80;60.10
11597;DHT22;5854;48.072;16.286;2023-08-06T16:46:01;18.80;59.90
11597;DHT22;5854;48.072;16.286;2023-08-06T16:54:08;18.90;60.70
11597;DHT22;5854;48.072;16.286;2023-08-06T16:56:35;19.00;60.10
11597;DHT22;5854;48.072;16.286;2023-08-06T17:01:39;19.00;60.30
11597;DHT22;5854;48.072;16.286;2023-08-06T17:14:30;18.60;61.50
11597;DHT22;5854;48.072;16.286;2023-08-06T17:19:41;18.50;60.30
11597;DHT22;5854;48.072;16.286;2023-08-06T17:22:14;18.50;62.20
11597;DHT22;5854;48.072;16.286;2023-08-06T17:27:21;18.50;61.50
11597;DHT22;5854;48.072;16.286;2023-08-06T17:32:36;18.30;61.90
11597;DHT22;5854;48.072;16.286;2023-08-06T17:40:21;18.10;60.80
11597;DHT22;5854;48.072;16.286;2023-08-06T17:42:48;18.00;59.60
11597;DHT22;5854;48.072;16.286;2023-08-06T17:45:16;18.10;63.50
11597;DHT22;5854;48.072;16.286;2023-08-06T17:47:46;18.10;62.80
11597;DHT22;5854;48.072;16.286;2023-08-06T17:50:13;17.90;62.60
11597;DHT22;5854;48.072;16.286;2023-08-06T18:00:26;17.70;62.70
11597;DHT22;5854;48.072;16.286;2023-08-06T18:05:28;17.70;62.20
11597;DHT22;5854;48.072;16.286;2023-08-06T18:08:12;17.70;64.30
11597;DHT22;5854;48.072;16.286;2023-08-06T18:10:39;17.80;62.30
11597;DHT22;5854;48.072;16.286;2023-08-06T18:13:07;17.90;63.50
11597;DHT22;5854;48.072;16.286;2023-08-06T18:15:36;17.80;63.30
11597;DHT22;5854;48.072;16.286;2023-08-06T18:18:03;17.80;62.90
11597;DHT22;5854;48.072;16.286;2023-08-06T18:20:30;17.70;62.50
11597;DHT22;5854;48.072;16.286;2023-08-06T18:22:57;17.80;60.70
11597;DHT22;5854;48.072;16.286;2023-08-06T18:25:24;17.70;62.00
11597;DHT22;5854;48.072;16.286;2023-08-06T18:27:51;17.70;63.80
11597;DHT22;5854;48.072;16.286;2023-08-06T18:30:18;17.60;62.10
11597;DHT22;5854;48.072;16.286;2023-08-06T18:32:46;17.60;63.60
11597;DHT22;5854;48.072;16.286;2023-08-06T18:35:13;17.70;64.40
11597;DHT22;5854;48.072;16.286;2023-08-06T18:37:40;17.70;63.00
11597;DHT22;5854;48.072;16.286;2023-08-06T18:40:10;17.70;61.40
11597;DHT22;5854;48.072;16.286;2023-08-06T18:42:42;17.80;63.30
11597;DHT22;5854;48.072;16.286;2023-08-06T18:47:49;17.70;63.70
11597;DHT22;5854;48.072;16.286;2023-08-06T18:50:20;17.70;59.60
11597;DHT22;5854;48.072;16.286;2023-08-06T18:52:52;17.60;63.10
11597;DHT22;5854;48.072;16.286;2023-08-06T18:58:03;17.50;61.10
11597;DHT22;5854;48.072;16.286;2023-08-06T19:00:37;17.50;63.20
11597;DHT22;5854;48.072;16.286;2023-08-06T19:03:06;17.50;58.40
11597;DHT22;5854;48.072;16.286;2023-08-06T19:05:35;17.50;62.30
11597;DHT22;5854;48.072;16.286;2023-08-06T19:08:04;17.40;64.20
11597;DHT22;5854;48.072;16.286;2023-08-06T19:10:31;17.50;62.40
11597;DHT22;5854;48.072;16.286;2023-08-06T19:12:59;17.40;59.00
11597;DHT22;5854;48.072;16.286;2023-08-06T19:15:32;17.30;62.60
11597;DHT22;5854;48.072;16.286;2023-08-06T19:18:10;17.30;59.40
11597;DHT22;5854;48.072;16.286;2023-08-06T19:20:40;17.30;60.60
11597;DHT22;5854;48.072;16.286;2023-08-06T19:23:08;17.30;61.20
11597;DHT22;5854;48.072;16.286;2023-08-06T19:28:11;17.30;62.70
11597;DHT22;5854;48.072;16.286;2023-08-06T19:30:44;17.20;62.20
11597;DHT22;5854;48.072;16.286;2023-08-06T19:33:13;17.10;62.10
11597;DHT22;5854;48.072;16.286;2023-08-06T19:35:44;17.10;62.30
11597;DHT22;5854;48.072;16.286;2023-08-06T19:38:13;17.10;63.20
11597;DHT22;5854;48.072;16.286;2023-08-06T19:40:40;17.20;63.50
11597;DHT22;5854;48.072;16.286;2023-08-06T19:43:07;17.00;61.10
11597;DHT22;5854;48.072;16.286;2023-08-06T19:45:35;16.90;62.70
11597;DHT22;5854;48.072;16.286;2023-08-06T19:48:02;16.90;63.00
11597;DHT22;5854;48.072;16.286;2023-08-06T19:50:31;17.00;61.80
11597;DHT22;5854;48.072;16.286;2023-08-06T19:52:58;17.10;60.40
11597;DHT22;5854;48.072;16.286;2023-08-06T19:55:26;16.90;62.40
11597;DHT22;5854;48.072;16.286;2023-08-06T20:00:28;16.80;62.60
11597;DHT22;5854;48.072;16.286;2023-08-06T20:03:03;17.00;64.50
11597;DHT22;5854;48.072;16.286;2023-08-06T20:05:32;16.90;64.30
11597;DHT22;5854;48.072;16.286;2023-08-06T20:08:01;17.00;61.10
11597;DHT22;5854;48.072;16.286;2023-08-06T20:13:05;16.90;64.40
11597;DHT22;5854;48.072;16.286;2023-08-06T20:18:10;17.00;63.90
11597;DHT22;5854;48.072;16.286;2023-08-06T20:25:55;16.80;64.20
11597;DHT22;5854;48.072;16.286;2023-08-06T20:28:24;16.90;62.30
11597;DHT22;5854;48.072;16.286;2023-08-06T20:30:53;17.00;63.70
11597;DHT22;5854;48.072;16.286;2023-08-06T20:33:20;16.80;64.00
11597;DHT22;5854;48.072;16.286;2023-08-06T20:35:53;16.80;63.10
11597;DHT22;5854;48.072;16.286;2023-08-06T20:40:58;17.00;64.40
11597;DHT22;5854;48.072;16.286;2023-08-06T20:43:25;16.90;61.10
11597;DHT22;5854;48.072;16.286;2023-08-06T20:58:46;16.60;63.60
11597;DHT22;5854;48.072;16.286;2023-08-06T21:01:13;16.60;62.80
11597;DHT22;5854;48.072;16.286;2023-08-06T21:03:41;16.60;63.60
11597;DHT22;5854;48.072;16.286;2023-08-06T21:06:08;16.60;64.40
11597;DHT22;5854;48.072;16.286;2023-08-06T21:08:35;16.60;63.30
11597;DHT22;5854;48.072;16.286;2023-08-06T21:11:02;16.70;61.40
11597;DHT22;5854;48.072;16.286;2023-08-06T21:13:29;16.70;63.00
11597;DHT22;5854;48.072;16.286;2023-08-06T21:15:58;16.60;62.40
11597;DHT22;5854;48.072;16.286;2023-08-06T21:18:27;16.50;61.50
11597;DHT22;5854;48.072;16.286;2023-08-06T21:20:55;16.50;60.00
11597;DHT22;5854;48.072;16.286;2023-08-06T21:23:23;16.60;64.00
11597;DHT22;5854;48.072;16.286;2023-08-06T21:25:54;16.40;58.40
11597;DHT22;5854;48.072;16.286;2023-08-06T21:28:21;16.60;64.20
11597;DHT22;5854;48.072;16.286;2023-08-06T21:30:52;16.60;63.90
11597;DHT22;5854;48.072;16.286;2023-08-06T21:33:21;16.50;60.70
11597;DHT22;5854;48.072;16.286;2023-08-06T21:35:49;16.50;61.20
11597;DHT22;5854;48.072;16.286;2023-08-06T21:38:16;16.60;59.30
11597;DHT22;5854;48.072;16.286;2023-08-06T21:40:43;16.60;58.60
11597;DHT22;5854;48.072;16.286;2023-08-06T21:43:10;16.50;62.30
11597;DHT22;5854;48.072;16.286;2023-08-06T21:45:37;16.50;61.40
11597;DHT22;5854;48.072;16.286;2023-08-06T21:48:04;16.60;62.50
11597;DHT22;5854;48.072;16.286;2023-08-06T21:50:33;16.60;63.70
11597;DHT22;5854;48.072;16.286;2023-08-06T21:53:00;16.60;61.80
11597;DHT22;5854;48.072;16.286;2023-08-06T21:55:29;16.60;58.30
11597;DHT22;5854;48.072;16.286;2023-08-06T21:57:57;16.50;62.70
11597;DHT22;5854;48.072;16.286;2023-08-06T22:00:24;16.40;60.00
11597;DHT22;5854;48.072;16.286;2023-08-06T22:02:51;16.50;62.50
11597;DHT22;5854;48.072;16.286;2023-08-06T22:05:18;16.50;62.20
11597;DHT22;5854;48.072;16.286;2023-08-06T22:07:46;16.40;59.40
11597;DHT22;5854;48.072;16.286;2023-08-06T22:10:13;16.40;61.30
11597;DHT22;5854;48.072;16.286;2023-08-06T22:12:40;16.40;62.60
11597;DHT22;5854;48.072;16.286;2023-08-06T22:15:07;16.40;61.00
11597;DHT22;5854;48.072;16.286;2023-08-06T22:17:35;16.50;62.80
11597;DHT22;5854;48.072;16.286;2023-08-06T22:20:02;16.40;62.70
11597;DHT22;5854;48.072;16.286;2023-08-06T22:22:30;16.40;62.10
11597;DHT22;5854;48.072;16.286;2023-08-06T22:24:59;16.40;62.70
11597;DHT22;5854;48.072;16.286;2023-08-06T22:27:26;16.50;57.90
11597;DHT22;5854;48.072;16.286;2023-08-06T22:29:53;16.30;60.50
11597;DHT22;5854;48.072;16.286;2023-08-06T22:32:20;16.40;62.40
11597;DHT22;5854;48.072;16.286;2023-08-06T22:34:47;16.30;59.60
11597;DHT22;5854;48.072;16.286;2023-08-06T22:37:14;16.40;61.60
11597;DHT22;5854;48.072;16.286;2023-08-06T22:39:40;16.40;61.30
11597;DHT22;5854;48.072;16.286;2023-08-06T22:42:09;16.30;61.60
11597;DHT22;5854;48.072;16.286;2023-08-06T22:44:36;16.30;62.20
11597;DHT22;5854;48.072;16.286;2023-08-06T22:47:03;16.30;62.70
11597;DHT22;5854;48.072;16.286;2023-08-06T22:49:31;16.30;62.40
11597;DHT22;5854;48.072;16.286;2023-08-06T22:51:58;16.30;57.90
11597;DHT22;5854;48.072;16.286;2023-08-06T22:54:25;16.30;62.60
11597;DHT22;5854;48.072;16.286;2023-08-06T22:56:52;16.40;61.50
11597;DHT22;5854;48.072;16.286;2023-08-06T22:59:20;16.30;59.30
11597;DHT22;5854;48.072;16.286;2023-08-06T23:01:47;16.30;61.60
11597;DHT22;5854;48.072;16.286;2023-08-06T23:04:14;16.20;61.90
11597;DHT22;5854;48.072;16.286;2023-08-06T23:06:41;16.30;62.50
11597;DHT22;5854;48.072;16.286;2023-08-06T23:09:08;16.30;58.70
11597;DHT22;5854;48.072;16.286;2023-08-06T23:11:35;16.20;61.90
11597;DHT22;5854;48.072;16.286;2023-08-06T23:14:02;16.20;59.50
11597;DHT22;5854;48.072;16.286;2023-08-06T23:16:30;16.20;61.40
11597;DHT22;5854;48.072;16.286;2023-08-06T23:18:57;16.10;60.20
11597;DHT22;5854;48.072;16.286;2023-08-06T23:21:24;16.10;57.80
11597;DHT22;5854;48.072;16.286;2023-08-06T23:23:51;16.10;60.50
11597;DHT22;5854;48.072;16.286;2023-08-06T23:26:19;16.20;56.20
11597;DHT22;5854;48.072;16.286;2023-08-06T23:28:46;16.10;58.40
11597;DHT22;5854;48.072;16.286;2023-08-06T23:31:14;16.00;58.20
11597;DHT22;5854;48.072;16.286;2023-08-06T23:33:42;16.10;62.00
11597;DHT22;5854;48.072;16.286;2023-08-06T23:36:09;16.10;60.40
11597;DHT22;5854;48.072;16.286;2023-08-06T23:38:36;16.00;58.70
11597;DHT22;5854;48.072;16.286;2023-08-06T23:41:03;16.10;59.50
11597;DHT22;5854;48.072;16.286;2023-08-06T23:43:30;16.00;57.10
11597;DHT22;5854;48.072;16.286;2023-08-06T23:45:57;16.10;58.40
11597;DHT22;5854;48.072;16.286;2023-08-06T23:48:24;16.20;61.40
11597;DHT22;5854;48.072;16.286;2023-08-06T23:50:52;16.20;59.80
11597;DHT22;5854;48.072;16.286;2023-08-06T23:53:20;16.10;56.60
11597;DHT22;5854;48.072;16.286;2023-08-06T23:55:48;16.10;56.20
11597;DHT22;5854;48.072;16.286;2023-08-06T23:58:14;16.00;57.00
